Bima Sakti Utama — PLPW — position and weather

sailwx.info

Track history (hours):
 
Tides and Currents Weather Stations Pressure Air Temp Water Temp Dewpoint Dewpoint Depression Visibility Wind Speed Wind Dir Waves Ship Positions

Bima Sakti Utama

Last reported at 2018-Apr-23 07:02 UTC. Time now 2018-Apr-25 14:15 UTC.
Position S 06°54' E 112°44'.

Length 60 m; draft 3.8 m.

Type: Other ship. MMSI: 525001047.

Date/timePositionNaut miles runAvg speedWind from/ knotsBaromVisibWave heightAir tempDewpointWater temp
2018-Apr-23 07:02S 06°54' E 112°44'2 7.0
2018-Apr-23 06:49S 06°55' E 112°43'3 6.9
2018-Apr-23 06:24S 06°58' E 112°43'3 7.2
2018-Apr-23 05:55S 07°01' E 112°41'3 7.1
2018-Apr-23 05:30S 07°03' E 112°40'5 7.3
2018-Apr-23 04:49S 07°08' E 112°40'3 7.8
2018-Apr-23 04:24S 07°11' E 112°42'2 6.0
2018-Apr-23 03:59S 07°12' E 112°44'0 0.2
2018-Apr-23 03:30S 07°12' E 112°44'0 0.0
2018-Apr-23 03:00S 07°12' E 112°44'0 0.0
2018-Apr-23 02:26S 07°12' E 112°44'0 0.0
2018-Apr-23 02:00S 07°12' E 112°44'0 0.0
2018-Apr-23 01:25S 07°12' E 112°44'0 0.0
2018-Apr-23 00:59S 07°12' E 112°44'0 0.0
2018-Apr-23 00:20S 07°12' E 112°44'0 0.0
2018-Apr-22 23:57S 07°12' E 112°44'0 0.0
2018-Apr-22 23:29S 07°12' E 112°44'0 0.0
2018-Apr-22 22:59S 07°12' E 112°44'0 0.0
2018-Apr-22 22:22S 07°12' E 112°44'0 0.0
2018-Apr-22 21:58S 07°12' E 112°44'0 0.0
2018-Apr-22 21:29S 07°12' E 112°44'0 0.0
2018-Apr-22 21:00S 07°12' E 112°44'0 0.0
2018-Apr-22 20:30S 07°12' E 112°44'0 0.0
2018-Apr-22 20:00S 07°12' E 112°44'0 0.0
2018-Apr-22 19:29S 07°12' E 112°44'0 0.0
2018-Apr-22 19:00S 07°12' E 112°44'0 0.0
2018-Apr-22 18:30S 07°12' E 112°44'0 0.0
2018-Apr-22 17:59S 07°12' E 112°44'0 0.0
2018-Apr-22 17:28S 07°12' E 112°44'0 0.0
2018-Apr-22 16:45S 07°12' E 112°44'0 0.0
2018-Apr-22 16:29S 07°12' E 112°44'0 0.0
2018-Apr-22 16:00S 07°12' E 112°44'0 0.0
2018-Apr-22 15:30S 07°12' E 112°44'0 0.0
2018-Apr-22 15:00S 07°12' E 112°44'0 0.0
2018-Apr-22 14:27S 07°12' E 112°44'0 0.0
2018-Apr-22 13:56S 07°12' E 112°44'0 0.0
2018-Apr-22 13:29S 07°12' E 112°44'0 0.0
2018-Apr-22 13:00S 07°12' E 112°44'0 0.0
2018-Apr-22 12:30S 07°12' E 112°44'0 0.0
2018-Apr-22 11:59S 07°12' E 112°44'0 0.0
2018-Apr-22 11:30S 07°12' E 112°44'0 0.0
2018-Apr-22 11:00S 07°12' E 112°44'0 0.0
2018-Apr-22 10:27S 07°12' E 112°44'0 0.0
2018-Apr-22 09:57S 07°12' E 112°44'0 0.0
2018-Apr-22 09:30S 07°12' E 112°44'0 0.0
2018-Apr-22 08:57S 07°12' E 112°44'0 0.0
2018-Apr-22 08:30S 07°12' E 112°44'0 0.0
2018-Apr-22 07:51S 07°12' E 112°44'0 0.0
2018-Apr-22 07:27S 07°12' E 112°44'0 0.0
2018-Apr-22 06:56S 07°12' E 112°44'0 0.0
2018-Apr-22 06:26S 07°12' E 112°44'0 0.0
2018-Apr-22 05:53S 07°12' E 112°44'0 0.0
2018-Apr-22 05:29S 07°12' E 112°44'0 0.0
2018-Apr-22 04:59S 07°12' E 112°44'0 0.0
2018-Apr-22 04:28S 07°12' E 112°44'0 0.0
2018-Apr-22 03:59S 07°12' E 112°44'0 0.0
2018-Apr-22 03:28S 07°12' E 112°44'0 0.0
2018-Apr-22 03:00S 07°12' E 112°44'0 0.0
2018-Apr-22 02:23S 07°12' E 112°44'0 0.0
2018-Apr-22 01:57S 07°12' E 112°44'0 0.0
2018-Apr-22 01:26S 07°12' E 112°44'0 0.0
2018-Apr-22 00:56S 07°12' E 112°44'0 0.0
2018-Apr-22 00:24S 07°12' E 112°44'0 0.0
2018-Apr-21 23:58S 07°12' E 112°44'0 0.0
2018-Apr-21 23:30S 07°12' E 112°44'0 0.0
2018-Apr-21 22:55S 07°12' E 112°44'0 0.0
2018-Apr-21 22:30S 07°12' E 112°44'0 0.0
2018-Apr-21 22:00S 07°12' E 112°44'0 0.0
2018-Apr-21 21:29S 07°12' E 112°44'0 0.0
2018-Apr-21 20:57S 07°12' E 112°44'0 0.0
2018-Apr-21 20:26S 07°12' E 112°44'0 0.0
2018-Apr-21 20:00S 07°12' E 112°44'0 0.0
2018-Apr-21 19:25S 07°12' E 112°44'0 0.0
2018-Apr-21 19:00S 07°12' E 112°44'0 0.0
2018-Apr-21 18:27S 07°12' E 112°44'0 0.0
2018-Apr-21 18:00S 07°12' E 112°44'0 0.0
2018-Apr-21 17:30S 07°12' E 112°44'0 0.0
2018-Apr-21 16:59S 07°12' E 112°44'0 0.0
2018-Apr-21 16:29S 07°12' E 112°44'0 0.0
2018-Apr-21 15:59S 07°12' E 112°44'0 0.0
2018-Apr-21 15:29S 07°12' E 112°44'0 0.0
2018-Apr-21 14:58S 07°12' E 112°44'0 0.0
2018-Apr-21 14:30S 07°12' E 112°44'0 0.0
2018-Apr-21 13:58S 07°12' E 112°44'0 0.0
2018-Apr-21 13:26S 07°12' E 112°44'0 0.0
2018-Apr-21 13:00S 07°12' E 112°44'0 0.0
2018-Apr-21 12:30S 07°12' E 112°44'0 0.0
2018-Apr-21 11:58S 07°12' E 112°44'0 0.0
2018-Apr-21 11:29S 07°12' E 112°44'0 0.0
2018-Apr-21 11:00S 07°12' E 112°44'0 0.0
2018-Apr-21 10:30S 07°12' E 112°44'0 0.0
2018-Apr-21 10:00S 07°12' E 112°44'0 0.0
2018-Apr-21 09:29S 07°12' E 112°44'0 0.0
2018-Apr-21 09:00S 07°12' E 112°44'0 0.0
2018-Apr-21 08:29S 07°12' E 112°44'0 0.0
2018-Apr-21 07:59S 07°12' E 112°44'0 0.0
2018-Apr-21 07:27S 07°12' E 112°44'0 0.0
2018-Apr-21 06:59S 07°12' E 112°44'0 0.0
2018-Apr-21 06:29S 07°12' E 112°44'0 0.0
2018-Apr-21 05:57S 07°12' E 112°44'0 0.0
2018-Apr-21 05:29S 07°12' E 112°44'0 0.0
2018-Apr-21 04:59S 07°12' E 112°44'0 0.0
2018-Apr-21 04:29S 07°12' E 112°44'0 0.0
2018-Apr-21 03:57S 07°12' E 112°44'0 0.0
2018-Apr-21 03:30S 07°12' E 112°44'0 0.0
2018-Apr-21 02:56S 07°12' E 112°44'0 0.0
2018-Apr-21 02:27S 07°12' E 112°44'0 0.0
2018-Apr-21 01:57S 07°12' E 112°44'0 0.0
2018-Apr-21 01:30S 07°12' E 112°44'0 0.0
2018-Apr-21 00:57S 07°12' E 112°44'0 0.0
2018-Apr-21 00:29S 07°12' E 112°44'0 0.0
2018-Apr-20 23:56S 07°12' E 112°44'0 0.0
2018-Apr-20 23:28S 07°12' E 112°44'0 0.0
2018-Apr-20 22:53S 07°12' E 112°44'0 0.0
2018-Apr-20 22:28S 07°12' E 112°44'0 0.0
2018-Apr-20 22:00S 07°12' E 112°44'0 0.0
2018-Apr-20 21:24S 07°12' E 112°44'0 0.0
2018-Apr-20 20:57S 07°12' E 112°44'0 0.0
2018-Apr-20 20:27S 07°12' E 112°44'0 0.0
2018-Apr-20 19:52S 07°12' E 112°44'0 0.0
2018-Apr-20 19:30S 07°12' E 112°44'0 0.0
2018-Apr-20 19:00S 07°12' E 112°44'0 0.0
2018-Apr-20 18:26S 07°12' E 112°44'0 0.0
2018-Apr-20 17:52S 07°12' E 112°44'0 0.0
2018-Apr-20 17:29S 07°12' E 112°44'0 0.0
2018-Apr-20 16:57S 07°12' E 112°44'0 0.0
2018-Apr-20 16:28S 07°12' E 112°44'0 0.0
2018-Apr-20 16:00S 07°12' E 112°44'0 0.0
2018-Apr-20 15:27S 07°12' E 112°44'0 0.0
2018-Apr-20 14:56S 07°12' E 112°44'0 0.0
2018-Apr-20 14:30S 07°12' E 112°44'0 0.0
2018-Apr-20 13:58S 07°12' E 112°44'0 0.0
2018-Apr-20 13:29S 07°12' E 112°44'0 0.0
2018-Apr-20 12:55S 07°12' E 112°44'0 0.0
2018-Apr-20 12:30S 07°12' E 112°44'0 0.0
2018-Apr-20 11:54S 07°12' E 112°44'0 0.0
2018-Apr-20 11:28S 07°12' E 112°44'0 0.0
2018-Apr-20 10:58S 07°12' E 112°44'0 0.0
2018-Apr-20 10:29S 07°12' E 112°44'0 0.0
2018-Apr-20 10:00S 07°12' E 112°44'0 0.0
2018-Apr-20 09:24S 07°12' E 112°44'0 0.0
2018-Apr-20 08:59S 07°12' E 112°44'0 0.0
2018-Apr-20 08:29S 07°12' E 112°44'0 0.0
2018-Apr-20 07:57S 07°12' E 112°44'0 0.0
2018-Apr-20 07:29S 07°12' E 112°44'0 0.0
2018-Apr-20 07:00S 07°12' E 112°44'0 0.0
2018-Apr-20 06:28S 07°12' E 112°44'0 0.0
2018-Apr-20 05:59S 07°12' E 112°44'0 0.0
2018-Apr-20 05:20S 07°12' E 112°44'0 0.0
2018-Apr-20 05:00S 07°12' E 112°44'0 0.0
2018-Apr-20 04:30S 07°12' E 112°44'0 0.0
2018-Apr-20 03:56S 07°12' E 112°44'0 0.0
2018-Apr-20 03:28S 07°12' E 112°44'0 0.0
2018-Apr-20 02:54S 07°12' E 112°44'0 0.0
2018-Apr-20 02:30S 07°12' E 112°44'0 0.0
2018-Apr-20 01:53S 07°12' E 112°44'0 0.0
2018-Apr-20 01:26S 07°12' E 112°44'0 0.0
2018-Apr-20 00:58S 07°12' E 112°44'0 0.0
2018-Apr-20 00:30S 07°12' E 112°44'0 0.0
2018-Apr-19 23:59S 07°12' E 112°44'0 0.0
2018-Apr-19 23:30S 07°12' E 112°44'0 0.0
2018-Apr-19 23:00S 07°12' E 112°44'0 0.0
2018-Apr-19 22:28S 07°12' E 112°44'0 0.0
2018-Apr-19 21:59S 07°12' E 112°44'0 0.0
2018-Apr-19 21:30S 07°12' E 112°44'0 0.0
2018-Apr-19 20:58S 07°12' E 112°44'0 0.0
2018-Apr-19 20:29S 07°12' E 112°44'0 0.0
2018-Apr-19 19:59S 07°12' E 112°44'0 0.0
2018-Apr-19 19:30S 07°12' E 112°44'0 0.0
2018-Apr-19 19:00S 07°12' E 112°44'0 0.0
2018-Apr-19 18:30S 07°12' E 112°44'0 0.0
2018-Apr-19 18:00S 07°12' E 112°44'0 0.0
2018-Apr-19 17:29S 07°12' E 112°44'0 0.0
2018-Apr-19 16:51S 07°12' E 112°44'0 0.0
2018-Apr-19 16:26S 07°12' E 112°44'0 0.0
2018-Apr-19 16:00S 07°12' E 112°44'0 0.0
2018-Apr-19 15:30S 07°12' E 112°44'0 0.0
2018-Apr-19 14:51S 07°12' E 112°44'0 0.0
2018-Apr-19 14:30S 07°12' E 112°44'0 0.0
2018-Apr-19 13:55S 07°12' E 112°44'0 0.0
2018-Apr-19 13:30S 07°12' E 112°44'0 0.0
2018-Apr-19 13:00S 07°12' E 112°44'0 0.0
2018-Apr-19 12:30S 07°12' E 112°44'0 0.0
2018-Apr-19 11:59S 07°12' E 112°44'0 0.0
2018-Apr-19 11:30S 07°12' E 112°44'0 0.0
2018-Apr-19 11:00S 07°12' E 112°44'0 0.0
2018-Apr-19 10:29S 07°12' E 112°44'0 0.0
2018-Apr-19 10:00S 07°12' E 112°44'0 0.0
2018-Apr-19 09:30S 07°12' E 112°44'0 0.0
2018-Apr-19 08:56S 07°12' E 112°44'0 0.0
2018-Apr-19 08:26S 07°12' E 112°44'0 0.0
2018-Apr-19 08:00S 07°12' E 112°44'0 0.0
2018-Apr-19 07:19S 07°12' E 112°44'0 0.0
2018-Apr-19 07:00S 07°12' E 112°44'0 0.0
2018-Apr-19 06:26S 07°12' E 112°44'0 0.0
2018-Apr-19 06:00S 07°12' E 112°44'0 0.0
2018-Apr-19 05:29S 07°12' E 112°44'0 0.0
2018-Apr-19 04:57S 07°12' E 112°44'0 0.0
2018-Apr-19 04:28S 07°12' E 112°44'0 0.0
2018-Apr-19 04:00S 07°12' E 112°44'0 0.0
2018-Apr-19 03:30S 07°12' E 112°44'0 0.0
2018-Apr-19 02:55S 07°12' E 112°44'0 0.0
2018-Apr-19 02:30S 07°12' E 112°44'0 0.0
2018-Apr-19 01:55S 07°12' E 112°44'0 0.0
2018-Apr-19 01:28S 07°12' E 112°44'0 0.0
2018-Apr-19 01:00S 07°12' E 112°44'0 0.0
2018-Apr-19 00:30S 07°12' E 112°44'0 0.0
2018-Apr-18 23:54S 07°12' E 112°44'0 0.0
2018-Apr-18 23:29S 07°12' E 112°44'0 0.0
2018-Apr-18 22:57S 07°12' E 112°44'0 0.0
2018-Apr-18 22:29S 07°12' E 112°44'0 0.0
2018-Apr-18 21:57S 07°12' E 112°44'0 0.0
2018-Apr-18 21:30S 07°12' E 112°44'0 0.0
2018-Apr-18 20:58S 07°12' E 112°44'0 0.0
2018-Apr-18 20:27S 07°12' E 112°44'0 0.0
2018-Apr-18 19:59S 07°12' E 112°44'0 0.0
2018-Apr-18 19:30S 07°12' E 112°44'0 0.0
2018-Apr-18 19:00S 07°12' E 112°44'0 0.0
2018-Apr-18 18:28S 07°12' E 112°44'0 0.0
2018-Apr-18 17:43S 07°12' E 112°44'0 0.0
2018-Apr-18 17:30S 07°12' E 112°44'0 0.0
2018-Apr-18 16:56S 07°12' E 112°44'0 0.0
2018-Apr-18 16:27S 07°12' E 112°44'0 0.0
2018-Apr-18 15:57S 07°12' E 112°44'0 0.0
2018-Apr-18 15:26S 07°12' E 112°44'0 0.0
2018-Apr-18 14:57S 07°12' E 112°44'0 0.0
2018-Apr-18 14:30S 07°12' E 112°44'0 0.0
2018-Apr-18 13:57S 07°12' E 112°44'0 0.0
2018-Apr-18 13:25S 07°12' E 112°44'0 0.0
2018-Apr-18 13:00S 07°12' E 112°44'0 0.0
2018-Apr-18 12:27S 07°12' E 112°44'0 0.0
2018-Apr-18 11:37S 07°12' E 112°44'0 0.0
2018-Apr-18 11:29S 07°12' E 112°44'0 0.0
2018-Apr-18 10:57S 07°12' E 112°44'0 0.0
2018-Apr-18 10:29S 07°12' E 112°44'0 0.0
2018-Apr-18 09:58S 07°12' E 112°44'0 0.0
2018-Apr-18 09:29S 07°12' E 112°44'0 0.0
2018-Apr-18 08:55S 07°12' E 112°44'0 0.0
2018-Apr-18 08:25S 07°12' E 112°44'0 0.0
2018-Apr-18 07:57S 07°12' E 112°44'0 0.0
2018-Apr-18 07:29S 07°12' E 112°44'0 0.0
2018-Apr-18 06:59S 07°12' E 112°44'0 0.0
2018-Apr-18 06:29S 07°12' E 112°44'0 0.0
2018-Apr-18 05:57S 07°12' E 112°44'0 0.0
2018-Apr-18 05:28S 07°12' E 112°44'0 0.0
2018-Apr-18 05:00S 07°12' E 112°44'0 0.0
2018-Apr-18 04:26S 07°12' E 112°44'0 0.0
2018-Apr-18 04:00S 07°12' E 112°44'0 0.0
2018-Apr-18 03:23S 07°12' E 112°44'0 0.0
2018-Apr-18 02:57S 07°12' E 112°44'0 0.0
2018-Apr-18 02:30S 07°12' E 112°44'0 0.0
2018-Apr-18 01:57S 07°12' E 112°44'0 0.0
2018-Apr-18 01:27S 07°12' E 112°44'0 0.0
2018-Apr-18 00:59S 07°12' E 112°44'0 0.0
2018-Apr-18 00:30S 07°12' E 112°44'0 0.0
2018-Apr-17 23:53S 07°12' E 112°44'0 0.0
2018-Apr-17 23:30S 07°12' E 112°44'0 0.0
2018-Apr-17 22:57S 07°12' E 112°44'0 0.0
2018-Apr-17 22:26S 07°12' E 112°44'0 0.0
2018-Apr-17 21:58S 07°12' E 112°44'0 0.0
2018-Apr-17 21:22S 07°12' E 112°44'0 0.0
2018-Apr-17 20:57S 07°12' E 112°44'0 0.0
2018-Apr-17 20:26S 07°12' E 112°44'0 0.0
2018-Apr-17 20:00S 07°12' E 112°44'0 0.0
2018-Apr-17 19:30S 07°12' E 112°44'0 0.0
2018-Apr-17 19:00S 07°12' E 112°44'0 0.0
2018-Apr-17 18:30S 07°12' E 112°44'0 0.0
2018-Apr-17 17:59S 07°12' E 112°44'0 0.0
2018-Apr-17 17:23S 07°12' E 112°44'0 0.0
2018-Apr-17 16:51S 07°12' E 112°44'0 0.0
2018-Apr-17 16:30S 07°12' E 112°44'0 0.0
2018-Apr-17 15:53S 07°12' E 112°44'0 0.0
2018-Apr-17 15:30S 07°12' E 112°44'0 0.0
2018-Apr-17 14:50S 07°12' E 112°44'0 0.0
2018-Apr-17 14:17S 07°12' E 112°44'0 0.0
2018-Apr-17 13:59S 07°12' E 112°44'0 0.0
2018-Apr-17 13:30S 07°12' E 112°44'0 0.0
2018-Apr-17 12:39S 07°12' E 112°44'0 0.0
2018-Apr-17 12:25S 07°12' E 112°44'0 0.0
2018-Apr-17 11:55S 07°12' E 112°44'0 0.0
2018-Apr-17 11:20S 07°12' E 112°44'0 0.0
2018-Apr-17 10:08S 07°12' E 112°44'0 0.0
2018-Apr-17 09:18S 07°12' E 112°44'0 0.0
2018-Apr-17 08:18S 07°12' E 112°44'0 0.0
2018-Apr-17 07:56S 07°12' E 112°44'0 0.0
2018-Apr-17 07:30S 07°12' E 112°44'0 0.0
2018-Apr-17 06:57S 07°12' E 112°44'0 0.0
2018-Apr-17 06:27S 07°12' E 112°44'0 0.0
2018-Apr-17 06:00S 07°12' E 112°44'0 0.0
2018-Apr-17 05:26S 07°12' E 112°44'0 0.0
2018-Apr-17 04:57S 07°12' E 112°44'0 0.0
2018-Apr-17 04:20S 07°12' E 112°44'0 0.0
2018-Apr-17 04:00S 07°12' E 112°44'0 0.0
2018-Apr-17 03:29S 07°12' E 112°44'0 0.0
2018-Apr-17 02:56S 07°12' E 112°44'0 0.0
2018-Apr-17 02:20S 07°12' E 112°44'0 0.0
2018-Apr-17 02:00S 07°12' E 112°44'0 0.0
2018-Apr-17 01:28S 07°12' E 112°44'0 0.0
2018-Apr-17 00:58S 07°12' E 112°44'0 0.0
2018-Apr-17 00:30S 07°12' E 112°44'0 0.0
2018-Apr-17 00:00S 07°12' E 112°44'0 0.0
2018-Apr-16 23:28S 07°12' E 112°44'0 0.0
2018-Apr-16 22:54S 07°12' E 112°44'0 0.0
2018-Apr-16 22:30S 07°12' E 112°44'0 0.0
2018-Apr-16 21:59S 07°12' E 112°44'0 0.0
2018-Apr-16 21:27S 07°12' E 112°44'0 0.0
2018-Apr-16 20:57S 07°12' E 112°44'0 0.0
2018-Apr-16 20:25S 07°12' E 112°44'0 0.0
2018-Apr-16 20:00S 07°12' E 112°44'0 0.0
2018-Apr-16 19:27S 07°12' E 112°44'0 0.0
2018-Apr-16 18:50S 07°12' E 112°44'0 0.0
2018-Apr-16 18:30S 07°12' E 112°44'0 0.0
2018-Apr-16 17:57S 07°12' E 112°44'0 0.0
2018-Apr-16 17:21S 07°12' E 112°44'0 0.0
2018-Apr-16 16:57S 07°12' E 112°44'0 0.0
2018-Apr-16 16:30S 07°12' E 112°44'0 0.0
2018-Apr-16 15:53S 07°12' E 112°44'0 0.0
2018-Apr-16 15:30S 07°12' E 112°44'0 0.0
2018-Apr-16 14:57S 07°12' E 112°44'0 0.0
2018-Apr-16 14:25S 07°12' E 112°44'0 0.0
2018-Apr-16 13:58S 07°12' E 112°44'0 0.0
2018-Apr-16 13:03S 07°12' E 112°44'0 0.0
2018-Apr-16 12:38S 07°12' E 112°44'0 0.0
2018-Apr-16 11:22S 07°12' E 112°44'0 0.0
2018-Apr-16 10:58S 07°12' E 112°44'0 0.0
2018-Apr-16 10:30S 07°12' E 112°44'0 0.0
2018-Apr-16 10:00S 07°12' E 112°44'0 0.0
2018-Apr-16 09:24S 07°12' E 112°44'0 0.0
2018-Apr-16 08:56S 07°12' E 112°44'0 0.0
2018-Apr-16 08:27S 07°12' E 112°44'0 0.0
2018-Apr-16 07:58S 07°12' E 112°44'0 0.0
2018-Apr-16 07:16S 07°12' E 112°44'0 0.0
2018-Apr-16 06:59S 07°12' E 112°44'0 0.0
2018-Apr-16 06:25S 07°12' E 112°44'0 0.0
2018-Apr-16 05:59S 07°12' E 112°44'0 0.0
2018-Apr-16 05:30S 07°12' E 112°44'0 0.0
2018-Apr-16 05:01S 07°12' E 112°44'0 0.0
2018-Apr-16 04:30S 07°12' E 112°44'0 0.0
2018-Apr-16 04:00S 07°12' E 112°44'0 0.0
2018-Apr-16 03:26S 07°12' E 112°44'0 0.0
2018-Apr-16 03:00S 07°12' E 112°44'0 0.0
2018-Apr-16 02:30S 07°12' E 112°44'0 0.0
2018-Apr-16 01:58S 07°12' E 112°44'0 0.0
2018-Apr-16 01:30S 07°12' E 112°44'0 0.0
2018-Apr-16 01:00S 07°12' E 112°44'0 0.0
2018-Apr-16 00:30S 07°12' E 112°44'0 0.0
2018-Apr-15 23:59S 07°12' E 112°44'0 0.0
2018-Apr-15 23:26S 07°12' E 112°44'0 0.0
2018-Apr-15 22:57S 07°12' E 112°44'0 0.0
2018-Apr-15 22:30S 07°12' E 112°44'0 0.0
2018-Apr-15 21:49S 07°12' E 112°44'0 0.0
2018-Apr-15 21:24S 07°12' E 112°44'0 0.0
2018-Apr-15 20:58S 07°12' E 112°44'0 0.0
2018-Apr-15 20:25S 07°12' E 112°44'0 0.0
2018-Apr-15 19:50S 07°12' E 112°44'0 0.0
2018-Apr-15 19:25S 07°12' E 112°44'0 0.0
2018-Apr-15 18:53S 07°12' E 112°44'0 0.0
2018-Apr-15 18:23S 07°12' E 112°44'0 0.0
2018-Apr-15 18:00S 07°12' E 112°44'0 0.0
2018-Apr-15 17:22S 07°12' E 112°44'0 0.0
2018-Apr-15 16:58S 07°12' E 112°44'0 0.0
2018-Apr-15 16:29S 07°12' E 112°44'0 0.0
2018-Apr-15 15:58S 07°12' E 112°44'0 0.0
2018-Apr-15 15:29S 07°12' E 112°44'0 0.0
2018-Apr-15 14:52S 07°12' E 112°44'0 0.0
2018-Apr-15 14:25S 07°12' E 112°44'0 0.0
2018-Apr-15 14:00S 07°12' E 112°44'0 0.0
2018-Apr-15 13:18S 07°12' E 112°44'0 0.0
2018-Apr-15 12:44S 07°12' E 112°44'0 0.0
2018-Apr-15 12:27S 07°12' E 112°44'0 0.0
2018-Apr-15 11:56S 07°12' E 112°44'0 0.0
2018-Apr-15 11:21S 07°12' E 112°44'0 0.0
2018-Apr-15 10:56S 07°12' E 112°44'0 0.0
2018-Apr-15 10:30S 07°12' E 112°44'0 0.0
2018-Apr-15 09:49S 07°12' E 112°44'0 0.0
2018-Apr-15 09:20S 07°12' E 112°44'0 0.0
2018-Apr-15 08:58S 07°12' E 112°44'0 0.0
2018-Apr-15 08:24S 07°12' E 112°44'0 0.0
2018-Apr-15 07:47S 07°12' E 112°44'0 0.0
2018-Apr-15 07:28S 07°12' E 112°44'0 0.0
2018-Apr-15 06:50S 07°12' E 112°44'0 0.0
2018-Apr-15 06:30S 07°12' E 112°44'0 0.0
2018-Apr-15 05:54S 07°12' E 112°44'0 0.0
2018-Apr-15 05:27S 07°12' E 112°44'0 0.0
2018-Apr-15 04:58S 07°12' E 112°44'0 0.0
2018-Apr-15 04:30S 07°12' E 112°44'0 0.0
2018-Apr-15 03:50S 07°12' E 112°44'0 0.0
2018-Apr-15 03:28S 07°12' E 112°44'0 0.0
2018-Apr-15 03:00S 07°12' E 112°44'0 0.0
2018-Apr-15 02:30S 07°12' E 112°44'0 0.0
2018-Apr-15 01:59S 07°12' E 112°44'0 0.0
2018-Apr-15 01:26S 07°12' E 112°44'0 0.0
2018-Apr-15 00:55S 07°12' E 112°44'0 0.0
2018-Apr-15 00:29S 07°12' E 112°44'0 0.0
2018-Apr-14 22:51S 07°12' E 112°44'0 0.0
2018-Apr-14 22:29S 07°12' E 112°44'0 0.0
2018-Apr-14 21:58S 07°12' E 112°44'0 0.0
2018-Apr-14 21:29S 07°12' E 112°44'0 0.0
2018-Apr-14 20:52S 07°12' E 112°44'0 0.0
2018-Apr-14 18:39S 07°12' E 112°44'0 0.0
2018-Apr-14 18:12S 07°12' E 112°44'0 0.0
2018-Apr-14 17:03S 07°12' E 112°44'0 0.0
2018-Apr-14 16:57S 07°12' E 112°44'0 0.0
2018-Apr-14 16:26S 07°12' E 112°44'0 0.0
2018-Apr-14 15:03S 07°12' E 112°44'0 0.0
2018-Apr-14 14:59S 07°12' E 112°44'0 0.0
2018-Apr-14 14:30S 07°12' E 112°44'0 0.0
2018-Apr-14 13:49S 07°12' E 112°44'0 0.0
2018-Apr-14 13:29S 07°12' E 112°44'0 0.0
2018-Apr-14 12:43S 07°12' E 112°44'0 0.0
2018-Apr-14 12:29S 07°12' E 112°44'0 0.0
2018-Apr-14 11:58S 07°12' E 112°44'0 0.0
2018-Apr-14 11:12S 07°12' E 112°44'0 0.0
2018-Apr-14 10:59S 07°12' E 112°44'0 0.0
2018-Apr-14 10:29S 07°12' E 112°44'0 0.0
2018-Apr-14 09:59S 07°12' E 112°44'0 0.0
2018-Apr-14 09:28S 07°12' E 112°44'0 0.0
2018-Apr-14 08:56S 07°12' E 112°44'0 0.0
2018-Apr-14 08:29S 07°12' E 112°44'0 0.0
2018-Apr-14 07:54S 07°12' E 112°44'0 0.0
2018-Apr-14 07:28S 07°12' E 112°44'0 0.0
2018-Apr-14 06:37S 07°12' E 112°44'0 0.0
2018-Apr-14 06:27S 07°12' E 112°44'0 0.0
2018-Apr-14 05:55S 07°12' E 112°44'0 0.0
2018-Apr-14 05:26S 07°12' E 112°44'0 0.0
2018-Apr-14 04:48S 07°12' E 112°44'0 0.0
2018-Apr-14 04:21S 07°12' E 112°44'0 0.0
2018-Apr-14 03:59S 07°12' E 112°44'0 0.0
2018-Apr-14 03:20S 07°12' E 112°44'0 0.0
2018-Apr-14 03:00S 07°12' E 112°44'0 0.0
2018-Apr-14 02:20S 07°12' E 112°44'0 0.0
2018-Apr-14 01:56S 07°12' E 112°44'0 0.0
2018-Apr-14 01:17S 07°12' E 112°44'0 0.0
2018-Apr-14 01:00S 07°12' E 112°44'0 0.0
2018-Apr-14 00:30S 07°12' E 112°44'0 0.0
2018-Apr-13 23:55S 07°12' E 112°44'0 0.0
2018-Apr-13 23:28S 07°12' E 112°44'0 0.0
2018-Apr-13 23:00S 07°12' E 112°44'0 0.0
2018-Apr-13 22:28S 07°12' E 112°44'0 0.0
2018-Apr-13 22:00S 07°12' E 112°44'0 0.0
2018-Apr-13 21:10S 07°12' E 112°44'0 0.0
2018-Apr-13 20:40S 07°12' E 112°44'0 0.0
2018-Apr-13 20:25S 07°12' E 112°44'0 0.0
2018-Apr-13 19:58S 07°12' E 112°44'0 0.0
2018-Apr-13 19:28S 07°12' E 112°44'0 0.0
2018-Apr-13 18:54S 07°12' E 112°44'0 0.0
2018-Apr-13 18:28S 07°12' E 112°44'0 0.0
2018-Apr-13 17:58S 07°12' E 112°44'0 0.0
2018-Apr-13 17:30S 07°12' E 112°44'0 0.0
2018-Apr-13 16:59S 07°12' E 112°44'0 0.0
2018-Apr-13 16:26S 07°12' E 112°44'0 0.0
2018-Apr-13 15:52S 07°12' E 112°44'0 0.0
2018-Apr-13 15:30S 07°12' E 112°44'0 0.0
2018-Apr-13 15:00S 07°12' E 112°44'0 0.0
2018-Apr-13 14:24S 07°12' E 112°44'0 0.0
2018-Apr-13 13:58S 07°12' E 112°44'0 0.0
2018-Apr-13 13:29S 07°12' E 112°44'0 0.0
2018-Apr-13 12:59S 07°12' E 112°44'0 0.0
2018-Apr-13 12:28S 07°12' E 112°44'0 0.0
2018-Apr-13 12:00S 07°12' E 112°44'0 0.0
2018-Apr-13 11:16S 07°12' E 112°44'0 0.0
2018-Apr-13 10:55S 07°12' E 112°44'0 0.0
2018-Apr-13 10:29S 07°12' E 112°44'0 0.0
2018-Apr-13 09:59S 07°12' E 112°44'0 0.0
2018-Apr-13 09:31S 07°12' E 112°44'0 0.0
2018-Apr-13 09:00S 07°12' E 112°44'0 0.0
2018-Apr-13 08:26S 07°12' E 112°44'0 0.0
2018-Apr-13 07:49S 07°12' E 112°44'0 0.0
2018-Apr-13 07:29S 07°12' E 112°44'  
Track history (hours):
 
Tides and Currents Weather Stations Pressure Air Temp Water Temp Dewpoint Dewpoint Depression Visibility Wind Speed Wind Dir Waves Ship Positions

Bima Sakti Utama

Last reported at 2018-Apr-23 07:02 UTC. Time now 2018-Apr-25 14:15 UTC.
Position S 06°54' E 112°44'.

Length 60 m; draft 3.8 m.

Type: Other ship. MMSI: 525001047.

Date/timePositionNaut miles runAvg speedWind from/ knotsBaromVisibWave heightAir tempDewpointWater temp
2018-Apr-23 07:02S 06°54' E 112°44'2 7.0
2018-Apr-23 06:49S 06°55' E 112°43'3 6.9
2018-Apr-23 06:24S 06°58' E 112°43'3 7.2
2018-Apr-23 05:55S 07°01' E 112°41'3 7.1
2018-Apr-23 05:30S 07°03' E 112°40'5 7.3
2018-Apr-23 04:49S 07°08' E 112°40'3 7.8
2018-Apr-23 04:24S 07°11' E 112°42'2 6.0
2018-Apr-23 03:59S 07°12' E 112°44'0 0.2
2018-Apr-23 03:30S 07°12' E 112°44'0 0.0
2018-Apr-23 03:00S 07°12' E 112°44'0 0.0
2018-Apr-23 02:26S 07°12' E 112°44'0 0.0
2018-Apr-23 02:00S 07°12' E 112°44'0 0.0
2018-Apr-23 01:25S 07°12' E 112°44'0 0.0
2018-Apr-23 00:59S 07°12' E 112°44'0 0.0
2018-Apr-23 00:20S 07°12' E 112°44'0 0.0
2018-Apr-22 23:57S 07°12' E 112°44'0 0.0
2018-Apr-22 23:29S 07°12' E 112°44'0 0.0
2018-Apr-22 22:59S 07°12' E 112°44'0 0.0
2018-Apr-22 22:22S 07°12' E 112°44'0 0.0
2018-Apr-22 21:58S 07°12' E 112°44'0 0.0
2018-Apr-22 21:29S 07°12' E 112°44'0 0.0
2018-Apr-22 21:00S 07°12' E 112°44'0 0.0
2018-Apr-22 20:30S 07°12' E 112°44'0 0.0
2018-Apr-22 20:00S 07°12' E 112°44'0 0.0
2018-Apr-22 19:29S 07°12' E 112°44'0 0.0
2018-Apr-22 19:00S 07°12' E 112°44'0 0.0
2018-Apr-22 18:30S 07°12' E 112°44'0 0.0
2018-Apr-22 17:59S 07°12' E 112°44'0 0.0
2018-Apr-22 17:28S 07°12' E 112°44'0 0.0
2018-Apr-22 16:45S 07°12' E 112°44'0 0.0
2018-Apr-22 16:29S 07°12' E 112°44'0 0.0
2018-Apr-22 16:00S 07°12' E 112°44'0 0.0
2018-Apr-22 15:30S 07°12' E 112°44'0 0.0
2018-Apr-22 15:00S 07°12' E 112°44'0 0.0
2018-Apr-22 14:27S 07°12' E 112°44'0 0.0
2018-Apr-22 13:56S 07°12' E 112°44'0 0.0
2018-Apr-22 13:29S 07°12' E 112°44'0 0.0
2018-Apr-22 13:00S 07°12' E 112°44'0 0.0
2018-Apr-22 12:30S 07°12' E 112°44'0 0.0
2018-Apr-22 11:59S 07°12' E 112°44'0 0.0
2018-Apr-22 11:30S 07°12' E 112°44'0 0.0
2018-Apr-22 11:00S 07°12' E 112°44'0 0.0
2018-Apr-22 10:27S 07°12' E 112°44'0 0.0
2018-Apr-22 09:57S 07°12' E 112°44'0 0.0
2018-Apr-22 09:30S 07°12' E 112°44'0 0.0
2018-Apr-22 08:57S 07°12' E 112°44'0 0.0
2018-Apr-22 08:30S 07°12' E 112°44'0 0.0
2018-Apr-22 07:51S 07°12' E 112°44'0 0.0
2018-Apr-22 07:27S 07°12' E 112°44'0 0.0
2018-Apr-22 06:56S 07°12' E 112°44'0 0.0
2018-Apr-22 06:26S 07°12' E 112°44'0 0.0
2018-Apr-22 05:53S 07°12' E 112°44'0 0.0
2018-Apr-22 05:29S 07°12' E 112°44'0 0.0
2018-Apr-22 04:59S 07°12' E 112°44'0 0.0
2018-Apr-22 04:28S 07°12' E 112°44'0 0.0
2018-Apr-22 03:59S 07°12' E 112°44'0 0.0
2018-Apr-22 03:28S 07°12' E 112°44'0 0.0
2018-Apr-22 03:00S 07°12' E 112°44'0 0.0
2018-Apr-22 02:23S 07°12' E 112°44'0 0.0
2018-Apr-22 01:57S 07°12' E 112°44'0 0.0
2018-Apr-22 01:26S 07°12' E 112°44'0 0.0
2018-Apr-22 00:56S 07°12' E 112°44'0 0.0
2018-Apr-22 00:24S 07°12' E 112°44'0 0.0
2018-Apr-21 23:58S 07°12' E 112°44'0 0.0
2018-Apr-21 23:30S 07°12' E 112°44'0 0.0
2018-Apr-21 22:55S 07°12' E 112°44'0 0.0
2018-Apr-21 22:30S 07°12' E 112°44'0 0.0
2018-Apr-21 22:00S 07°12' E 112°44'0 0.0
2018-Apr-21 21:29S 07°12' E 112°44'0 0.0
2018-Apr-21 20:57S 07°12' E 112°44'0 0.0
2018-Apr-21 20:26S 07°12' E 112°44'0 0.0
2018-Apr-21 20:00S 07°12' E 112°44'0 0.0
2018-Apr-21 19:25S 07°12' E 112°44'0 0.0
2018-Apr-21 19:00S 07°12' E 112°44'0 0.0
2018-Apr-21 18:27S 07°12' E 112°44'0 0.0
2018-Apr-21 18:00S 07°12' E 112°44'0 0.0
2018-Apr-21 17:30S 07°12' E 112°44'0 0.0
2018-Apr-21 16:59S 07°12' E 112°44'0 0.0
2018-Apr-21 16:29S 07°12' E 112°44'0 0.0
2018-Apr-21 15:59S 07°12' E 112°44'0 0.0
2018-Apr-21 15:29S 07°12' E 112°44'0 0.0
2018-Apr-21 14:58S 07°12' E 112°44'0 0.0
2018-Apr-21 14:30S 07°12' E 112°44'0 0.0
2018-Apr-21 13:58S 07°12' E 112°44'0 0.0
2018-Apr-21 13:26S 07°12' E 112°44'0 0.0
2018-Apr-21 13:00S 07°12' E 112°44'0 0.0
2018-Apr-21 12:30S 07°12' E 112°44'0 0.0
2018-Apr-21 11:58S 07°12' E 112°44'0 0.0
2018-Apr-21 11:29S 07°12' E 112°44'0 0.0
2018-Apr-21 11:00S 07°12' E 112°44'0 0.0
2018-Apr-21 10:30S 07°12' E 112°44'0 0.0
2018-Apr-21 10:00S 07°12' E 112°44'0 0.0
2018-Apr-21 09:29S 07°12' E 112°44'0 0.0
2018-Apr-21 09:00S 07°12' E 112°44'0 0.0
2018-Apr-21 08:29S 07°12' E 112°44'0 0.0
2018-Apr-21 07:59S 07°12' E 112°44'0 0.0
2018-Apr-21 07:27S 07°12' E 112°44'0 0.0
2018-Apr-21 06:59S 07°12' E 112°44'0 0.0
2018-Apr-21 06:29S 07°12' E 112°44'0 0.0
2018-Apr-21 05:57S 07°12' E 112°44'0 0.0
2018-Apr-21 05:29S 07°12' E 112°44'0 0.0
2018-Apr-21 04:59S 07°12' E 112°44'0 0.0
2018-Apr-21 04:29S 07°12' E 112°44'0 0.0
2018-Apr-21 03:57S 07°12' E 112°44'0 0.0
2018-Apr-21 03:30S 07°12' E 112°44'0 0.0
2018-Apr-21 02:56S 07°12' E 112°44'0 0.0
2018-Apr-21 02:27S 07°12' E 112°44'0 0.0
2018-Apr-21 01:57S 07°12' E 112°44'0 0.0
2018-Apr-21 01:30S 07°12' E 112°44'0 0.0
2018-Apr-21 00:57S 07°12' E 112°44'0 0.0
2018-Apr-21 00:29S 07°12' E 112°44'0 0.0
2018-Apr-20 23:56S 07°12' E 112°44'0 0.0
2018-Apr-20 23:28S 07°12' E 112°44'0 0.0
2018-Apr-20 22:53S 07°12' E 112°44'0 0.0
2018-Apr-20 22:28S 07°12' E 112°44'0 0.0
2018-Apr-20 22:00S 07°12' E 112°44'0 0.0
2018-Apr-20 21:24S 07°12' E 112°44'0 0.0
2018-Apr-20 20:57S 07°12' E 112°44'0 0.0
2018-Apr-20 20:27S 07°12' E 112°44'0 0.0
2018-Apr-20 19:52S 07°12' E 112°44'0 0.0
2018-Apr-20 19:30S 07°12' E 112°44'0 0.0
2018-Apr-20 19:00S 07°12' E 112°44'0 0.0
2018-Apr-20 18:26S 07°12' E 112°44'0 0.0
2018-Apr-20 17:52S 07°12' E 112°44'0 0.0
2018-Apr-20 17:29S 07°12' E 112°44'0 0.0
2018-Apr-20 16:57S 07°12' E 112°44'0 0.0
2018-Apr-20 16:28S 07°12' E 112°44'0 0.0
2018-Apr-20 16:00S 07°12' E 112°44'0 0.0
2018-Apr-20 15:27S 07°12' E 112°44'0 0.0
2018-Apr-20 14:56S 07°12' E 112°44'0 0.0
2018-Apr-20 14:30S 07°12' E 112°44'0 0.0
2018-Apr-20 13:58S 07°12' E 112°44'0 0.0
2018-Apr-20 13:29S 07°12' E 112°44'0 0.0
2018-Apr-20 12:55S 07°12' E 112°44'0 0.0
2018-Apr-20 12:30S 07°12' E 112°44'0 0.0
2018-Apr-20 11:54S 07°12' E 112°44'0 0.0
2018-Apr-20 11:28S 07°12' E 112°44'0 0.0
2018-Apr-20 10:58S 07°12' E 112°44'0 0.0
2018-Apr-20 10:29S 07°12' E 112°44'0 0.0
2018-Apr-20 10:00S 07°12' E 112°44'0 0.0
2018-Apr-20 09:24S 07°12' E 112°44'0 0.0
2018-Apr-20 08:59S 07°12' E 112°44'0 0.0
2018-Apr-20 08:29S 07°12' E 112°44'0 0.0
2018-Apr-20 07:57S 07°12' E 112°44'0 0.0
2018-Apr-20 07:29S 07°12' E 112°44'0 0.0
2018-Apr-20 07:00S 07°12' E 112°44'0 0.0
2018-Apr-20 06:28S 07°12' E 112°44'0 0.0
2018-Apr-20 05:59S 07°12' E 112°44'0 0.0
2018-Apr-20 05:20S 07°12' E 112°44'0 0.0
2018-Apr-20 05:00S 07°12' E 112°44'0 0.0
2018-Apr-20 04:30S 07°12' E 112°44'0 0.0
2018-Apr-20 03:56S 07°12' E 112°44'0 0.0
2018-Apr-20 03:28S 07°12' E 112°44'0 0.0
2018-Apr-20 02:54S 07°12' E 112°44'0 0.0
2018-Apr-20 02:30S 07°12' E 112°44'0 0.0
2018-Apr-20 01:53S 07°12' E 112°44'0 0.0
2018-Apr-20 01:26S 07°12' E 112°44'0 0.0
2018-Apr-20 00:58S 07°12' E 112°44'0 0.0
2018-Apr-20 00:30S 07°12' E 112°44'0 0.0
2018-Apr-19 23:59S 07°12' E 112°44'0 0.0
2018-Apr-19 23:30S 07°12' E 112°44'0 0.0
2018-Apr-19 23:00S 07°12' E 112°44'0 0.0
2018-Apr-19 22:28S 07°12' E 112°44'0 0.0
2018-Apr-19 21:59S 07°12' E 112°44'0 0.0
2018-Apr-19 21:30S 07°12' E 112°44'0 0.0
2018-Apr-19 20:58S 07°12' E 112°44'0 0.0
2018-Apr-19 20:29S 07°12' E 112°44'0 0.0
2018-Apr-19 19:59S 07°12' E 112°44'0 0.0
2018-Apr-19 19:30S 07°12' E 112°44'0 0.0
2018-Apr-19 19:00S 07°12' E 112°44'0 0.0
2018-Apr-19 18:30S 07°12' E 112°44'0 0.0
2018-Apr-19 18:00S 07°12' E 112°44'0 0.0
2018-Apr-19 17:29S 07°12' E 112°44'0 0.0
2018-Apr-19 16:51S 07°12' E 112°44'0 0.0
2018-Apr-19 16:26S 07°12' E 112°44'0 0.0
2018-Apr-19 16:00S 07°12' E 112°44'0 0.0
2018-Apr-19 15:30S 07°12' E 112°44'0 0.0
2018-Apr-19 14:51S 07°12' E 112°44'0 0.0
2018-Apr-19 14:30S 07°12' E 112°44'0 0.0
2018-Apr-19 13:55S 07°12' E 112°44'0 0.0
2018-Apr-19 13:30S 07°12' E 112°44'0 0.0
2018-Apr-19 13:00S 07°12' E 112°44'0 0.0
2018-Apr-19 12:30S 07°12' E 112°44'0 0.0
2018-Apr-19 11:59S 07°12' E 112°44'0 0.0
2018-Apr-19 11:30S 07°12' E 112°44'0 0.0
2018-Apr-19 11:00S 07°12' E 112°44'0 0.0
2018-Apr-19 10:29S 07°12' E 112°44'0 0.0
2018-Apr-19 10:00S 07°12' E 112°44'0 0.0
2018-Apr-19 09:30S 07°12' E 112°44'0 0.0
2018-Apr-19 08:56S 07°12' E 112°44'0 0.0
2018-Apr-19 08:26S 07°12' E 112°44'0 0.0
2018-Apr-19 08:00S 07°12' E 112°44'0 0.0
2018-Apr-19 07:19S 07°12' E 112°44'0 0.0
2018-Apr-19 07:00S 07°12' E 112°44'0 0.0
2018-Apr-19 06:26S 07°12' E 112°44'0 0.0
2018-Apr-19 06:00S 07°12' E 112°44'0 0.0
2018-Apr-19 05:29S 07°12' E 112°44'0 0.0
2018-Apr-19 04:57S 07°12' E 112°44'0 0.0
2018-Apr-19 04:28S 07°12' E 112°44'0 0.0
2018-Apr-19 04:00S 07°12' E 112°44'0 0.0
2018-Apr-19 03:30S 07°12' E 112°44'0 0.0
2018-Apr-19 02:55S 07°12' E 112°44'0 0.0
2018-Apr-19 02:30S 07°12' E 112°44'0 0.0
2018-Apr-19 01:55S 07°12' E 112°44'0 0.0
2018-Apr-19 01:28S 07°12' E 112°44'0 0.0
2018-Apr-19 01:00S 07°12' E 112°44'0 0.0
2018-Apr-19 00:30S 07°12' E 112°44'0 0.0
2018-Apr-18 23:54S 07°12' E 112°44'0 0.0
2018-Apr-18 23:29S 07°12' E 112°44'0 0.0
2018-Apr-18 22:57S 07°12' E 112°44'0 0.0
2018-Apr-18 22:29S 07°12' E 112°44'0 0.0
2018-Apr-18 21:57S 07°12' E 112°44'0 0.0
2018-Apr-18 21:30S 07°12' E 112°44'0 0.0
2018-Apr-18 20:58S 07°12' E 112°44'0 0.0
2018-Apr-18 20:27S 07°12' E 112°44'0 0.0
2018-Apr-18 19:59S 07°12' E 112°44'0 0.0
2018-Apr-18 19:30S 07°12' E 112°44'0 0.0
2018-Apr-18 19:00S 07°12' E 112°44'0 0.0
2018-Apr-18 18:28S 07°12' E 112°44'0 0.0
2018-Apr-18 17:43S 07°12' E 112°44'0 0.0
2018-Apr-18 17:30S 07°12' E 112°44'0 0.0
2018-Apr-18 16:56S 07°12' E 112°44'0 0.0
2018-Apr-18 16:27S 07°12' E 112°44'0 0.0
2018-Apr-18 15:57S 07°12' E 112°44'0 0.0
2018-Apr-18 15:26S 07°12' E 112°44'0 0.0
2018-Apr-18 14:57S 07°12' E 112°44'0 0.0
2018-Apr-18 14:30S 07°12' E 112°44'0 0.0
2018-Apr-18 13:57S 07°12' E 112°44'0 0.0
2018-Apr-18 13:25S 07°12' E 112°44'0 0.0
2018-Apr-18 13:00S 07°12' E 112°44'0 0.0
2018-Apr-18 12:27S 07°12' E 112°44'0 0.0
2018-Apr-18 11:37S 07°12' E 112°44'0 0.0
2018-Apr-18 11:29S 07°12' E 112°44'0 0.0
2018-Apr-18 10:57S 07°12' E 112°44'0 0.0
2018-Apr-18 10:29S 07°12' E 112°44'0 0.0
2018-Apr-18 09:58S 07°12' E 112°44'0 0.0
2018-Apr-18 09:29S 07°12' E 112°44'0 0.0
2018-Apr-18 08:55S 07°12' E 112°44'0 0.0
2018-Apr-18 08:25S 07°12' E 112°44'0 0.0
2018-Apr-18 07:57S 07°12' E 112°44'0 0.0
2018-Apr-18 07:29S 07°12' E 112°44'0 0.0
2018-Apr-18 06:59S 07°12' E 112°44'0 0.0
2018-Apr-18 06:29S 07°12' E 112°44'0 0.0
2018-Apr-18 05:57S 07°12' E 112°44'0 0.0
2018-Apr-18 05:28S 07°12' E 112°44'0 0.0
2018-Apr-18 05:00S 07°12' E 112°44'0 0.0
2018-Apr-18 04:26S 07°12' E 112°44'0 0.0
2018-Apr-18 04:00S 07°12' E 112°44'0 0.0
2018-Apr-18 03:23S 07°12' E 112°44'0 0.0
2018-Apr-18 02:57S 07°12' E 112°44'0 0.0
2018-Apr-18 02:30S 07°12' E 112°44'0 0.0
2018-Apr-18 01:57S 07°12' E 112°44'0 0.0
2018-Apr-18 01:27S 07°12' E 112°44'0 0.0
2018-Apr-18 00:59S 07°12' E 112°44'0 0.0
2018-Apr-18 00:30S 07°12' E 112°44'0 0.0
2018-Apr-17 23:53S 07°12' E 112°44'0 0.0
2018-Apr-17 23:30S 07°12' E 112°44'0 0.0
2018-Apr-17 22:57S 07°12' E 112°44'0 0.0
2018-Apr-17 22:26S 07°12' E 112°44'0 0.0
2018-Apr-17 21:58S 07°12' E 112°44'0 0.0
2018-Apr-17 21:22S 07°12' E 112°44'0 0.0
2018-Apr-17 20:57S 07°12' E 112°44'0 0.0
2018-Apr-17 20:26S 07°12' E 112°44'0 0.0
2018-Apr-17 20:00S 07°12' E 112°44'0 0.0
2018-Apr-17 19:30S 07°12' E 112°44'0 0.0
2018-Apr-17 19:00S 07°12' E 112°44'0 0.0
2018-Apr-17 18:30S 07°12' E 112°44'0 0.0
2018-Apr-17 17:59S 07°12' E 112°44'0 0.0
2018-Apr-17 17:23S 07°12' E 112°44'0 0.0
2018-Apr-17 16:51S 07°12' E 112°44'0 0.0
2018-Apr-17 16:30S 07°12' E 112°44'0 0.0
2018-Apr-17 15:53S 07°12' E 112°44'0 0.0
2018-Apr-17 15:30S 07°12' E 112°44'0 0.0
2018-Apr-17 14:50S 07°12' E 112°44'0 0.0
2018-Apr-17 14:17S 07°12' E 112°44'0 0.0
2018-Apr-17 13:59S 07°12' E 112°44'0 0.0
2018-Apr-17 13:30S 07°12' E 112°44'0 0.0
2018-Apr-17 12:39S 07°12' E 112°44'0 0.0
2018-Apr-17 12:25S 07°12' E 112°44'0 0.0
2018-Apr-17 11:55S 07°12' E 112°44'0 0.0
2018-Apr-17 11:20S 07°12' E 112°44'0 0.0
2018-Apr-17 10:08S 07°12' E 112°44'0 0.0
2018-Apr-17 09:18S 07°12' E 112°44'0 0.0
2018-Apr-17 08:18S 07°12' E 112°44'0 0.0
2018-Apr-17 07:56S 07°12' E 112°44'0 0.0
2018-Apr-17 07:30S 07°12' E 112°44'0 0.0
2018-Apr-17 06:57S 07°12' E 112°44'0 0.0
2018-Apr-17 06:27S 07°12' E 112°44'0 0.0
2018-Apr-17 06:00S 07°12' E 112°44'0 0.0
2018-Apr-17 05:26S 07°12' E 112°44'0 0.0
2018-Apr-17 04:57S 07°12' E 112°44'0 0.0
2018-Apr-17 04:20S 07°12' E 112°44'0 0.0
2018-Apr-17 04:00S 07°12' E 112°44'0 0.0
2018-Apr-17 03:29S 07°12' E 112°44'0 0.0
2018-Apr-17 02:56S 07°12' E 112°44'0 0.0
2018-Apr-17 02:20S 07°12' E 112°44'0 0.0
2018-Apr-17 02:00S 07°12' E 112°44'0 0.0
2018-Apr-17 01:28S 07°12' E 112°44'0 0.0
2018-Apr-17 00:58S 07°12' E 112°44'0 0.0
2018-Apr-17 00:30S 07°12' E 112°44'0 0.0
2018-Apr-17 00:00S 07°12' E 112°44'0 0.0
2018-Apr-16 23:28S 07°12' E 112°44'0 0.0
2018-Apr-16 22:54S 07°12' E 112°44'0 0.0
2018-Apr-16 22:30S 07°12' E 112°44'0 0.0
2018-Apr-16 21:59S 07°12' E 112°44'0 0.0
2018-Apr-16 21:27S 07°12' E 112°44'0 0.0
2018-Apr-16 20:57S 07°12' E 112°44'0 0.0
2018-Apr-16 20:25S 07°12' E 112°44'0 0.0
2018-Apr-16 20:00S 07°12' E 112°44'0 0.0
2018-Apr-16 19:27S 07°12' E 112°44'0 0.0
2018-Apr-16 18:50S 07°12' E 112°44'0 0.0
2018-Apr-16 18:30S 07°12' E 112°44'0 0.0
2018-Apr-16 17:57S 07°12' E 112°44'0 0.0
2018-Apr-16 17:21S 07°12' E 112°44'0 0.0
2018-Apr-16 16:57S 07°12' E 112°44'0 0.0
2018-Apr-16 16:30S 07°12' E 112°44'0 0.0
2018-Apr-16 15:53S 07°12' E 112°44'0 0.0
2018-Apr-16 15:30S 07°12' E 112°44'0 0.0
2018-Apr-16 14:57S 07°12' E 112°44'0 0.0
2018-Apr-16 14:25S 07°12' E 112°44'0 0.0
2018-Apr-16 13:58S 07°12' E 112°44'0 0.0
2018-Apr-16 13:03S 07°12' E 112°44'0 0.0
2018-Apr-16 12:38S 07°12' E 112°44'0 0.0
2018-Apr-16 11:22S 07°12' E 112°44'0 0.0
2018-Apr-16 10:58S 07°12' E 112°44'0 0.0
2018-Apr-16 10:30S 07°12' E 112°44'0 0.0
2018-Apr-16 10:00S 07°12' E 112°44'0 0.0
2018-Apr-16 09:24S 07°12' E 112°44'0 0.0
2018-Apr-16 08:56S 07°12' E 112°44'0 0.0
2018-Apr-16 08:27S 07°12' E 112°44'0 0.0
2018-Apr-16 07:58S 07°12' E 112°44'0 0.0
2018-Apr-16 07:16S 07°12' E 112°44'0 0.0
2018-Apr-16 06:59S 07°12' E 112°44'0 0.0
2018-Apr-16 06:25S 07°12' E 112°44'0 0.0
2018-Apr-16 05:59S 07°12' E 112°44'0 0.0
2018-Apr-16 05:30S 07°12' E 112°44'0 0.0
2018-Apr-16 05:01S 07°12' E 112°44'0 0.0
2018-Apr-16 04:30S 07°12' E 112°44'0 0.0
2018-Apr-16 04:00S 07°12' E 112°44'0 0.0
2018-Apr-16 03:26S 07°12' E 112°44'0 0.0
2018-Apr-16 03:00S 07°12' E 112°44'0 0.0
2018-Apr-16 02:30S 07°12' E 112°44'0 0.0
2018-Apr-16 01:58S 07°12' E 112°44'0 0.0
2018-Apr-16 01:30S 07°12' E 112°44'0 0.0
2018-Apr-16 01:00S 07°12' E 112°44'0 0.0
2018-Apr-16 00:30S 07°12' E 112°44'0 0.0
2018-Apr-15 23:59S 07°12' E 112°44'0 0.0
2018-Apr-15 23:26S 07°12' E 112°44'0 0.0
2018-Apr-15 22:57S 07°12' E 112°44'0 0.0
2018-Apr-15 22:30S 07°12' E 112°44'0 0.0
2018-Apr-15 21:49S 07°12' E 112°44'0 0.0
2018-Apr-15 21:24S 07°12' E 112°44'0 0.0
2018-Apr-15 20:58S 07°12' E 112°44'0 0.0
2018-Apr-15 20:25S 07°12' E 112°44'0 0.0
2018-Apr-15 19:50S 07°12' E 112°44'0 0.0
2018-Apr-15 19:25S 07°12' E 112°44'0 0.0
2018-Apr-15 18:53S 07°12' E 112°44'0 0.0
2018-Apr-15 18:23S 07°12' E 112°44'0 0.0
2018-Apr-15 18:00S 07°12' E 112°44'0 0.0
2018-Apr-15 17:22S 07°12' E 112°44'0 0.0
2018-Apr-15 16:58S 07°12' E 112°44'0 0.0
2018-Apr-15 16:29S 07°12' E 112°44'0 0.0
2018-Apr-15 15:58S 07°12' E 112°44'0 0.0
2018-Apr-15 15:29S 07°12' E 112°44'0 0.0
2018-Apr-15 14:52S 07°12' E 112°44'0 0.0
2018-Apr-15 14:25S 07°12' E 112°44'0 0.0
2018-Apr-15 14:00S 07°12' E 112°44'0 0.0
2018-Apr-15 13:18S 07°12' E 112°44'0 0.0
2018-Apr-15 12:44S 07°12' E 112°44'0 0.0
2018-Apr-15 12:27S 07°12' E 112°44'0 0.0
2018-Apr-15 11:56S 07°12' E 112°44'0 0.0
2018-Apr-15 11:21S 07°12' E 112°44'0 0.0
2018-Apr-15 10:56S 07°12' E 112°44'0 0.0
2018-Apr-15 10:30S 07°12' E 112°44'0 0.0
2018-Apr-15 09:49S 07°12' E 112°44'0 0.0
2018-Apr-15 09:20S 07°12' E 112°44'0 0.0
2018-Apr-15 08:58S 07°12' E 112°44'0 0.0
2018-Apr-15 08:24S 07°12' E 112°44'0 0.0
2018-Apr-15 07:47S 07°12' E 112°44'0 0.0
2018-Apr-15 07:28S 07°12' E 112°44'0 0.0
2018-Apr-15 06:50S 07°12' E 112°44'0 0.0
2018-Apr-15 06:30S 07°12' E 112°44'0 0.0
2018-Apr-15 05:54S 07°12' E 112°44'0 0.0
2018-Apr-15 05:27S 07°12' E 112°44'0 0.0
2018-Apr-15 04:58S 07°12' E 112°44'0 0.0
2018-Apr-15 04:30S 07°12' E 112°44'0 0.0
2018-Apr-15 03:50S 07°12' E 112°44'0 0.0
2018-Apr-15 03:28S 07°12' E 112°44'0 0.0
2018-Apr-15 03:00S 07°12' E 112°44'0 0.0
2018-Apr-15 02:30S 07°12' E 112°44'0 0.0
2018-Apr-15 01:59S 07°12' E 112°44'0 0.0
2018-Apr-15 01:26S 07°12' E 112°44'0 0.0
2018-Apr-15 00:55S 07°12' E 112°44'0 0.0
2018-Apr-15 00:29S 07°12' E 112°44'0 0.0
2018-Apr-14 22:51S 07°12' E 112°44'0 0.0
2018-Apr-14 22:29S 07°12' E 112°44'0 0.0
2018-Apr-14 21:58S 07°12' E 112°44'0 0.0
2018-Apr-14 21:29S 07°12' E 112°44'0 0.0
2018-Apr-14 20:52S 07°12' E 112°44'0 0.0
2018-Apr-14 18:39S 07°12' E 112°44'0 0.0
2018-Apr-14 18:12S 07°12' E 112°44'0 0.0
2018-Apr-14 17:03S 07°12' E 112°44'0 0.0
2018-Apr-14 16:57S 07°12' E 112°44'0 0.0
2018-Apr-14 16:26S 07°12' E 112°44'0 0.0
2018-Apr-14 15:03S 07°12' E 112°44'0 0.0
2018-Apr-14 14:59S 07°12' E 112°44'0 0.0
2018-Apr-14 14:30S 07°12' E 112°44'0 0.0
2018-Apr-14 13:49S 07°12' E 112°44'0 0.0
2018-Apr-14 13:29S 07°12' E 112°44'0 0.0
2018-Apr-14 12:43S 07°12' E 112°44'0 0.0
2018-Apr-14 12:29S 07°12' E 112°44'0 0.0
2018-Apr-14 11:58S 07°12' E 112°44'0 0.0
2018-Apr-14 11:12S 07°12' E 112°44'0 0.0
2018-Apr-14 10:59S 07°12' E 112°44'0 0.0
2018-Apr-14 10:29S 07°12' E 112°44'0 0.0
2018-Apr-14 09:59S 07°12' E 112°44'0 0.0
2018-Apr-14 09:28S 07°12' E 112°44'0 0.0
2018-Apr-14 08:56S 07°12' E 112°44'0 0.0
2018-Apr-14 08:29S 07°12' E 112°44'0 0.0
2018-Apr-14 07:54S 07°12' E 112°44'0 0.0
2018-Apr-14 07:28S 07°12' E 112°44'0 0.0
2018-Apr-14 06:37S 07°12' E 112°44'0 0.0
2018-Apr-14 06:27S 07°12' E 112°44'0 0.0
2018-Apr-14 05:55S 07°12' E 112°44'0 0.0
2018-Apr-14 05:26S 07°12' E 112°44'0 0.0
2018-Apr-14 04:48S 07°12' E 112°44'0 0.0
2018-Apr-14 04:21S 07°12' E 112°44'0 0.0
2018-Apr-14 03:59S 07°12' E 112°44'0 0.0
2018-Apr-14 03:20S 07°12' E 112°44'0 0.0
2018-Apr-14 03:00S 07°12' E 112°44'0 0.0
2018-Apr-14 02:20S 07°12' E 112°44'0 0.0
2018-Apr-14 01:56S 07°12' E 112°44'0 0.0
2018-Apr-14 01:17S 07°12' E 112°44'0 0.0
2018-Apr-14 01:00S 07°12' E 112°44'0 0.0
2018-Apr-14 00:30S 07°12' E 112°44'0 0.0
2018-Apr-13 23:55S 07°12' E 112°44'0 0.0
2018-Apr-13 23:28S 07°12' E 112°44'0 0.0
2018-Apr-13 23:00S 07°12' E 112°44'0 0.0
2018-Apr-13 22:28S 07°12' E 112°44'0 0.0
2018-Apr-13 22:00S 07°12' E 112°44'0 0.0
2018-Apr-13 21:10S 07°12' E 112°44'0 0.0
2018-Apr-13 20:40S 07°12' E 112°44'0 0.0
2018-Apr-13 20:25S 07°12' E 112°44'0 0.0
2018-Apr-13 19:58S 07°12' E 112°44'0 0.0
2018-Apr-13 19:28S 07°12' E 112°44'0 0.0
2018-Apr-13 18:54S 07°12' E 112°44'0 0.0
2018-Apr-13 18:28S 07°12' E 112°44'0 0.0
2018-Apr-13 17:58S 07°12' E 112°44'0 0.0
2018-Apr-13 17:30S 07°12' E 112°44'0 0.0
2018-Apr-13 16:59S 07°12' E 112°44'0 0.0
2018-Apr-13 16:26S 07°12' E 112°44'0 0.0
2018-Apr-13 15:52S 07°12' E 112°44'0 0.0
2018-Apr-13 15:30S 07°12' E 112°44'0 0.0
2018-Apr-13 15:00S 07°12' E 112°44'0 0.0
2018-Apr-13 14:24S 07°12' E 112°44'0 0.0
2018-Apr-13 13:58S 07°12' E 112°44'0 0.0
2018-Apr-13 13:29S 07°12' E 112°44'0 0.0
2018-Apr-13 12:59S 07°12' E 112°44'0 0.0
2018-Apr-13 12:28S 07°12' E 112°44'0 0.0
2018-Apr-13 12:00S 07°12' E 112°44'0 0.0
2018-Apr-13 11:16S 07°12' E 112°44'0 0.0
2018-Apr-13 10:55S 07°12' E 112°44'0 0.0
2018-Apr-13 10:29S 07°12' E 112°44'0 0.0
2018-Apr-13 09:59S 07°12' E 112°44'0 0.0
2018-Apr-13 09:31S 07°12' E 112°44'0 0.0
2018-Apr-13 09:00S 07°12' E 112°44'0 0.0
2018-Apr-13 08:26S 07°12' E 112°44'0 0.0
2018-Apr-13 07:49S 07°12' E 112°44'0 0.0
2018-Apr-13 07:29S 07°12' E 112°44'  

Dump ship's entire track history